createdAt,value
2022-09-17T00:16:19.116Z,167
2022-09-17T00:36:19.049Z,167
2022-09-17T00:56:19.059Z,168
2022-09-17T01:16:19.173Z,168
2022-09-17T01:36:19.043Z,167
2022-09-17T01:56:19.086Z,167
2022-09-17T02:16:18.630Z,168
2022-09-17T02:36:19.053Z,168
2022-09-17T02:56:19.141Z,167
2022-09-17T03:16:19.095Z,166
2022-09-17T03:36:19.062Z,168
2022-09-17T03:56:19.071Z,168
2022-09-17T04:16:19.114Z,168
2022-09-17T04:56:19.066Z,167
2022-09-17T05:16:18.683Z,169
2022-09-17T05:36:19.083Z,167
2022-09-17T05:56:19.088Z,167
2022-09-17T06:16:19.120Z,168
2022-09-17T06:36:19.084Z,168
2022-09-17T06:56:19.083Z,166
2022-09-17T07:16:19.137Z,167
2022-09-17T07:36:18.882Z,168
2022-09-17T07:56:19.157Z,168
2022-09-17T08:16:19.118Z,169
2022-09-17T08:36:19.084Z,171
2022-09-17T08:56:19.083Z,177
2022-09-17T09:16:19.173Z,170
2022-09-17T09:36:19.116Z,170
2022-09-17T09:56:19.112Z,169
2022-09-17T10:16:19.226Z,162
2022-09-17T10:36:19.172Z,158
2022-09-17T10:56:19.092Z,165
2022-09-17T11:16:19.513Z,163
2022-09-17T11:36:19.077Z,147
2022-09-17T11:56:19.093Z,162
2022-09-17T12:16:19.108Z,167
2022-09-17T12:36:19.060Z,173
2022-09-17T12:56:19.071Z,168
2022-09-17T13:16:20.037Z,178
2022-09-17T13:36:19.089Z,177
2022-09-17T13:56:19.083Z,162
2022-09-17T14:16:19.126Z,156
2022-09-17T14:36:19.065Z,167
2022-09-17T14:56:18.546Z,153
2022-09-17T15:16:18.595Z,149
2022-09-17T15:56:19.034Z,144
2022-09-17T16:16:19.077Z,154
2022-09-17T16:36:18.534Z,163
2022-09-17T16:56:19.063Z,175
2022-09-17T17:16:19.082Z,199
2022-09-17T17:36:19.045Z,199
2022-09-17T17:56:19.099Z,194
2022-09-17T18:36:19.046Z,189
2022-09-17T18:56:19.045Z,192
2022-09-17T19:16:19.071Z,197
2022-09-17T19:36:19.034Z,208
2022-09-17T19:56:19.049Z,208
2022-09-17T20:16:19.071Z,203
2022-09-17T20:36:19.056Z,226
2022-09-17T20:56:19.057Z,225
2022-09-17T21:16:19.083Z,225
2022-09-17T21:36:19.049Z,222
2022-09-17T21:56:19.058Z,217
2022-09-17T22:16:18.704Z,214
2022-09-17T22:36:19.057Z,211
2022-09-17T22:56:19.156Z,208
2022-09-17T23:16:18.685Z,207
2022-09-17T23:36:19.077Z,209
2022-09-17T23:56:19.065Z,204
